Time;durP1;ratioP1;P1;durP2;ratioP2;P2;SDS_P1;SDS_P2;PMS_P1;PMS_P2;Temp;Humidity;BMP_temperature;BMP_pressure;BME280_temperature;BME280_humidity;BME280_pressure;Samples;Min_cycle;Max_cycle;Signal;HPM_P1;HPM_P2
2021/10/29 00:02:22;;;;;;;28.75;23.88;;;8.10;1.00;;;;;;5037984;28;20291;-79
2021/10/29 00:04:49;;;;;;;28.98;23.52;;;8.10;1.00;;;;;;5030284;28;20742;-79
2021/10/29 00:07:17;;;;;;;26.27;23.48;;;8.10;1.00;;;;;;5026864;28;20246;-79
2021/10/29 00:09:44;;;;;;;26.13;23.35;;;8.10;1.00;;;;;;5028565;28;21062;-80
2021/10/29 00:12:12;;;;;;;27.42;23.10;;;8.10;1.00;;;;;;5034102;28;20242;-79
2021/10/29 00:14:40;;;;;;;28.00;23.92;;;8.00;1.00;;;;;;5038680;28;21847;-80
2021/10/29 00:17:06;;;;;;;29.05;24.65;;;8.00;1.00;;;;;;5023248;28;20247;-79
2021/10/29 00:19:33;;;;;;;30.48;25.00;;;7.90;1.00;;;;;;5031932;28;20220;-80
2021/10/29 00:22:01;;;;;;;29.63;24.27;;;8.00;1.00;;;;;;5028829;28;20332;-80
2021/10/29 00:24:29;;;;;;;26.48;23.50;;;8.00;1.00;;;;;;5030325;28;20218;-80
2021/10/29 00:26:56;;;;;;;27.55;24.55;;;7.90;1.00;;;;;;5031839;28;20231;-79
2021/10/29 00:29:23;;;;;;;30.40;25.38;;;7.90;1.00;;;;;;5038782;28;20226;-79
2021/10/29 00:31:50;;;;;;;29.77;22.77;;;7.90;1.00;;;;;;5037711;28;20227;-78
2021/10/29 00:34:17;;;;;;;27.52;23.88;;;7.90;1.00;;;;;;5036178;28;20750;-78
2021/10/29 00:36:44;;;;;;;27.20;23.75;;;7.90;1.00;;;;;;5032037;28;20715;-80
2021/10/29 00:39:11;;;;;;;31.13;25.85;;;7.80;1.00;;;;;;5031282;28;20309;-80
2021/10/29 00:41:39;;;;;;;28.02;24.70;;;7.90;1.00;;;;;;5029340;28;20237;-79
2021/10/29 00:44:06;;;;;;;25.45;22.75;;;7.90;1.00;;;;;;5030059;28;20227;-80
2021/10/29 00:46:33;;;;;;;27.38;24.48;;;7.90;1.00;;;;;;5029658;28;20224;-79
2021/10/29 00:49:00;;;;;;;29.08;24.10;;;7.80;1.00;;;;;;5034864;28;20963;-79
2021/10/29 00:51:27;;;;;;;29.38;24.88;;;7.90;1.00;;;;;;5029793;28;20241;-79
2021/10/29 00:53:54;;;;;;;27.20;23.92;;;7.80;1.00;;;;;;5031571;28;20221;-79
2021/10/29 00:56:21;;;;;;;30.52;26.35;;;7.70;1.00;;;;;;5028350;28;20232;-79
2021/10/29 00:58:49;;;;;;;30.60;24.65;;;7.70;1.00;;;;;;5033389;28;21026;-79
2021/10/29 01:01:16;;;;;;;28.83;25.08;;;7.60;1.00;;;;;;5030896;28;20261;-78
2021/10/29 01:03:43;;;;;;;30.17;25.13;;;7.60;1.00;;;;;;5030392;28;20225;-79
2021/10/29 01:06:11;;;;;;;31.58;25.02;;;7.50;1.00;;;;;;5031628;28;20716;-79
2021/10/29 01:08:38;;;;;;;35.08;25.88;;;7.60;1.00;;;;;;5030744;28;20281;-79
2021/10/29 01:11:05;;;;;;;31.05;25.65;;;7.50;1.00;;;;;;5017947;28;20230;-78
2021/10/29 01:13:32;;;;;;;33.40;27.73;;;7.40;1.00;;;;;;5031478;28;20432;-79
2021/10/29 01:16:00;;;;;;;33.85;26.15;;;7.40;1.00;;;;;;5033279;28;20244;-80
2021/10/29 01:18:26;;;;;;;31.20;26.95;;;7.40;1.00;;;;;;5023667;28;22233;-80
2021/10/29 01:20:55;;;;;;;32.67;27.75;;;7.40;1.00;;;;;;5031157;28;20230;-80
2021/10/29 01:23:21;;;;;;;32.95;28.00;;;7.40;1.00;;;;;;5029253;28;20285;-80
2021/10/29 01:25:48;;;;;;;31.63;27.38;;;7.40;1.00;;;;;;5036149;28;20221;-80
2021/10/29 01:28:15;;;;;;;32.33;28.02;;;7.40;1.00;;;;;;5047059;28;20232;-78
2021/10/29 01:30:42;;;;;;;29.60;25.73;;;7.30;1.00;;;;;;5049397;28;20210;-79
2021/10/29 01:33:09;;;;;;;31.08;27.58;;;7.30;1.00;;;;;;5039878;28;20461;-80
2021/10/29 01:35:35;;;;;;;33.00;28.13;;;7.30;1.00;;;;;;5033662;28;20602;-79
2021/10/29 01:38:03;;;;;;;37.28;28.33;;;7.30;1.00;;;;;;5032805;28;21789;-79
2021/10/29 01:40:30;;;;;;;34.53;28.63;;;7.30;1.00;;;;;;5028946;28;20261;-79
2021/10/29 01:42:56;;;;;;;33.35;27.42;;;7.20;1.00;;;;;;5032888;28;20253;-79
2021/10/29 01:45:23;;;;;;;31.88;28.40;;;7.20;1.00;;;;;;5032419;28;20716;-79
2021/10/29 01:47:50;;;;;;;32.28;28.85;;;7.20;1.00;;;;;;5025288;28;20261;-78
2021/10/29 01:50:16;;;;;;;33.28;29.02;;;7.20;1.00;;;;;;5030255;28;20739;-78
2021/10/29 01:52:43;;;;;;;30.95;27.35;;;7.10;1.00;;;;;;5030304;28;20357;-78
2021/10/29 01:55:12;;;;;;;35.30;28.42;;;7.20;1.00;;;;;;5037207;28;20271;-77
2021/10/29 01:57:39;;;;;;;34.80;28.92;;;7.20;1.00;;;;;;5034577;28;20213;-77
2021/10/29 02:00:07;;;;;;;37.30;29.67;;;7.10;1.00;;;;;;5033805;28;20229;-78
2021/10/29 02:02:34;;;;;;;36.50;29.75;;;7.10;1.00;;;;;;5034541;28;21028;-79
2021/10/29 02:05:00;;;;;;;34.80;30.58;;;7.20;1.00;;;;;;5041572;28;20288;-78
2021/10/29 02:07:27;;;;;;;36.13;29.85;;;7.20;1.00;;;;;;5041512;28;20227;-78
2021/10/29 02:09:54;;;;;;;34.60;29.30;;;7.20;1.00;;;;;;5038193;28;20230;-78
2021/10/29 02:12:22;;;;;;;37.45;30.55;;;7.20;1.00;;;;;;5031575;28;20230;-78
2021/10/29 02:14:49;;;;;;;38.75;30.65;;;7.20;1.00;;;;;;5041784;28;20233;-79
2021/10/29 02:17:15;;;;;;;34.10;30.35;;;7.20;1.00;;;;;;5035027;28;20229;-78
2021/10/29 02:19:42;;;;;;;34.90;29.58;;;7.20;1.00;;;;;;5039389;28;20316;-79
2021/10/29 02:22:09;;;;;;;34.08;29.73;;;7.10;1.00;;;;;;5044716;28;20240;-79
2021/10/29 02:24:36;;;;;;;38.10;30.40;;;7.10;1.00;;;;;;5047226;28;20304;-80
2021/10/29 02:27:03;;;;;;;36.55;29.88;;;7.10;1.00;;;;;;5050851;28;20293;-79
2021/10/29 02:29:31;;;;;;;35.88;29.08;;;7.00;1.00;;;;;;5051531;28;20230;-77
2021/10/29 02:31:58;;;;;;;37.20;30.17;;;7.00;1.00;;;;;;5046013;28;20273;-78
2021/10/29 02:34:24;;;;;;;36.83;30.77;;;7.00;1.00;;;;;;5037745;28;20222;-81
2021/10/29 02:36:51;;;;;;;36.45;30.05;;;7.00;1.00;;;;;;5038473;28;20222;-78
2021/10/29 02:39:18;;;;;;;33.92;29.52;;;7.00;1.00;;;;;;5034771;28;20225;-78
2021/10/29 02:41:44;;;;;;;36.38;29.42;;;6.90;1.00;;;;;;5030360;28;20300;-79
2021/10/29 02:44:11;;;;;;;36.08;30.10;;;6.90;1.00;;;;;;5032231;28;20272;-79
2021/10/29 02:46:39;;;;;;;36.28;29.70;;;6.90;1.00;;;;;;5026172;28;20281;-79
2021/10/29 02:49:06;;;;;;;36.75;31.08;;;6.90;1.00;;;;;;5030868;28;20269;-78
2021/10/29 02:51:33;;;;;;;37.40;29.85;;;6.80;1.00;;;;;;5029193;28;20690;-80
2021/10/29 02:54:00;;;;;;;37.90;30.80;;;6.80;1.00;;;;;;5031926;28;20818;-78
2021/10/29 02:56:27;;;;;;;37.22;31.35;;;6.80;1.00;;;;;;5029618;28;20209;-78
2021/10/29 02:58:53;;;;;;;39.95;32.28;;;6.80;1.00;;;;;;5036340;28;20225;-79
2021/10/29 03:01:20;;;;;;;36.05;30.08;;;6.80;1.00;;;;;;5038128;28;20229;-79
2021/10/29 03:03:48;;;;;;;37.53;30.50;;;6.80;1.00;;;;;;5043191;28;20270;-80
2021/10/29 03:06:15;;;;;;;35.22;30.52;;;6.80;1.00;;;;;;5032586;28;20256;-80
2021/10/29 03:08:42;;;;;;;37.60;31.17;;;6.80;1.00;;;;;;5049867;28;20320;-80
2021/10/29 03:11:08;;;;;;;35.72;31.33;;;6.80;1.00;;;;;;5035766;28;20230;-80
2021/10/29 03:13:35;;;;;;;39.40;32.38;;;6.70;1.00;;;;;;5032465;28;20226;-80
2021/10/29 03:16:02;;;;;;;41.13;32.70;;;6.70;1.00;;;;;;5033522;28;20293;-80
2021/10/29 03:18:28;;;;;;;39.95;33.97;;;6.70;1.00;;;;;;5027933;28;24624;-79
2021/10/29 03:20:56;;;;;;;40.78;32.70;;;6.70;1.00;;;;;;5034446;28;20231;-79
2021/10/29 03:23:23;;;;;;;40.33;32.88;;;6.70;1.00;;;;;;5032520;28;20930;-79
2021/10/29 03:25:50;;;;;;;41.45;32.33;;;6.60;1.00;;;;;;5036425;28;20217;-80
2021/10/29 03:28:16;;;;;;;42.03;32.83;;;6.60;1.00;;;;;;5050377;28;20501;-79
2021/10/29 03:30:44;;;;;;;40.65;31.45;;;6.60;1.00;;;;;;5046207;28;20265;-79
2021/10/29 03:33:10;;;;;;;43.58;33.60;;;6.50;1.00;;;;;;5026284;28;20234;-79
2021/10/29 03:35:37;;;;;;;40.67;33.47;;;6.50;1.00;;;;;;5037931;28;20225;-79
2021/10/29 03:38:33;;;;;;;43.83;34.80;;;6.50;1.00;;;;;;5059153;28;20276;-78
2021/10/29 03:41:01;;;;;;;39.53;35.00;;;6.50;1.00;;;;;;5060452;28;20197;-78
2021/10/29 03:43:31;;;;;;;39.17;33.15;;;6.40;1.00;;;;;;5056995;28;20229;-79
2021/10/29 03:46:01;;;;;;;42.03;33.20;;;6.40;1.00;;;;;;5053006;28;20226;-79
2021/10/29 03:48:33;;;;;;;40.88;32.45;;;6.40;1.00;;;;;;5042004;28;20220;-80
2021/10/29 03:51:04;;;;;;;42.35;34.25;;;6.40;1.00;;;;;;5030740;28;20703;-80
2021/10/29 03:53:41;;;;;;;44.17;33.00;;;6.40;1.00;;;;;;5027814;28;20230;-80
2021/10/29 03:56:16;;;;;;;44.35;34.35;;;6.30;1.00;;;;;;5048880;28;20236;-80
2021/10/29 03:58:43;;;;;;;45.03;34.10;;;6.30;1.00;;;;;;5031253;28;20646;-80
2021/10/29 04:01:09;;;;;;;41.30;32.88;;;6.30;1.00;;;;;;5023572;28;20222;-80
2021/10/29 04:03:36;;;;;;;45.95;33.20;;;6.30;1.00;;;;;;5031494;28;20285;-81
2021/10/29 04:06:03;;;;;;;44.40;35.58;;;6.20;1.00;;;;;;5033432;28;20227;-80
2021/10/29 04:08:30;;;;;;;41.38;34.80;;;6.20;1.00;;;;;;5029360;28;20275;-80
2021/10/29 04:10:58;;;;;;;43.92;33.22;;;6.20;1.00;;;;;;5032289;28;20209;-80
2021/10/29 04:13:26;;;;;;;42.22;35.22;;;6.10;1.00;;;;;;5026691;28;20225;-79
2021/10/29 04:15:53;;;;;;;44.58;35.78;;;6.10;1.00;;;;;;5035985;28;20273;-80
2021/10/29 04:18:21;;;;;;;39.47;32.42;;;6.10;1.00;;;;;;5031399;28;20236;-79
2021/10/29 04:20:48;;;;;;;41.30;32.38;;;6.10;1.00;;;;;;5025846;28;20312;-80
2021/10/29 04:23:15;;;;;;;43.88;32.78;;;6.10;1.00;;;;;;5034915;28;20230;-79
2021/10/29 04:25:42;;;;;;;41.45;35.42;;;6.00;1.00;;;;;;5037620;28;20221;-79
2021/10/29 04:28:11;;;;;;;43.10;34.35;;;6.00;1.00;;;;;;5051967;28;20222;-77
2021/10/29 04:30:38;;;;;;;45.55;35.95;;;6.00;1.00;;;;;;5035327;28;20321;-80
2021/10/29 04:33:07;;;;;;;47.33;35.78;;;6.00;1.00;;;;;;5031658;28;20234;-80
2021/10/29 04:35:35;;;;;;;44.65;35.90;;;6.00;1.00;;;;;;5031581;28;21057;-79
2021/10/29 04:38:02;;;;;;;42.90;34.83;;;6.00;1.00;;;;;;5023646;28;20226;-80
2021/10/29 04:40:29;;;;;;;43.33;35.13;;;6.00;1.00;;;;;;5027394;28;20229;-81
2021/10/29 04:42:56;;;;;;;43.58;35.40;;;6.00;1.00;;;;;;5034207;28;20218;-80
2021/10/29 04:45:23;;;;;;;42.00;34.95;;;6.00;1.00;;;;;;5034469;28;20304;-80
2021/10/29 04:47:50;;;;;;;49.22;35.78;;;6.00;1.00;;;;;;5035559;28;20285;-77
2021/10/29 04:50:17;;;;;;;41.85;35.78;;;5.90;1.00;;;;;;5035038;28;20288;-80
2021/10/29 04:52:44;;;;;;;44.42;36.10;;;5.90;1.00;;;;;;5030528;28;21081;-80
2021/10/29 04:55:11;;;;;;;42.15;34.97;;;5.90;1.00;;;;;;5035010;28;20231;-80
2021/10/29 04:57:38;;;;;;;41.55;35.33;;;5.90;1.00;;;;;;5033407;28;20280;-80
2021/10/29 05:00:06;;;;;;;46.45;34.95;;;5.90;1.00;;;;;;5034519;28;20236;-80
2021/10/29 05:02:39;;;;;;;41.22;34.05;;;5.90;1.00;;;;;;5035852;28;20226;-80
2021/10/29 05:05:08;;;;;;;44.67;35.33;;;5.80;1.00;;;;;;5039897;28;20225;-80
2021/10/29 05:07:37;;;;;;;43.97;34.10;;;5.80;1.00;;;;;;5030425;28;20249;-79
2021/10/29 05:10:04;;;;;;;42.00;35.40;;;5.80;1.00;;;;;;5026893;28;20226;-79
2021/10/29 05:12:31;;;;;;;42.17;33.70;;;5.80;1.00;;;;;;5032172;28;21419;-77
2021/10/29 05:14:58;;;;;;;42.97;34.78;;;5.80;1.00;;;;;;5032406;28;20829;-78
2021/10/29 05:17:25;;;;;;;44.88;35.03;;;5.80;1.00;;;;;;5047219;28;20292;-79
2021/10/29 05:19:53;;;;;;;47.15;35.20;;;5.80;1.00;;;;;;5024607;28;20222;-78
2021/10/29 05:22:21;;;;;;;40.67;35.95;;;5.80;1.00;;;;;;5036813;28;20221;-79
2021/10/29 05:24:48;;;;;;;45.63;35.78;;;5.70;1.00;;;;;;5032892;28;20303;-77
2021/10/29 05:27:17;;;;;;;49.80;38.30;;;5.70;1.00;;;;;;5054828;28;20237;-77
2021/10/29 05:29:43;;;;;;;44.10;35.35;;;5.70;1.00;;;;;;5055076;28;20237;-77
2021/10/29 05:32:10;;;;;;;44.00;33.88;;;5.70;1.00;;;;;;5034273;28;20248;-79
2021/10/29 05:34:37;;;;;;;41.92;35.08;;;5.70;1.00;;;;;;5045731;28;20744;-79
2021/10/29 05:37:05;;;;;;;41.13;34.10;;;5.70;1.00;;;;;;5039865;28;20218;-79
2021/10/29 05:39:35;;;;;;;42.33;35.15;;;5.70;1.00;;;;;;5029549;28;20209;-79
2021/10/29 05:42:02;;;;;;;41.55;34.65;;;5.70;1.00;;;;;;5030826;28;20230;-79
2021/10/29 05:44:29;;;;;;;47.75;36.65;;;5.60;1.00;;;;;;5046650;28;20442;-79
2021/10/29 05:46:57;;;;;;;43.22;34.53;;;5.60;1.00;;;;;;5030932;28;20221;-79
2021/10/29 05:49:24;;;;;;;44.00;34.13;;;5.60;1.00;;;;;;5038242;28;20222;-78
2021/10/29 05:51:52;;;;;;;50.03;35.55;;;5.60;1.00;;;;;;5035318;28;20319;-80
2021/10/29 05:55:01;;;;;;;48.90;37.90;;;5.50;1.00;;;;;;5062426;28;20237;-78
2021/10/29 05:57:28;;;;;;;45.60;37.90;;;5.50;1.00;;;;;;5035235;28;20221;-77
2021/10/29 05:59:56;;;;;;;48.42;36.50;;;5.50;1.00;;;;;;5032586;28;20312;-79
2021/10/29 06:02:23;;;;;;;41.97;35.28;;;5.50;1.00;;;;;;5026546;28;20825;-78
2021/10/29 06:04:50;;;;;;;48.83;39.28;;;5.50;1.00;;;;;;5033360;28;20224;-80
2021/10/29 06:07:16;;;;;;;42.28;35.70;;;5.50;1.00;;;;;;5033059;28;21937;-78
2021/10/29 06:09:45;;;;;;;47.60;36.65;;;5.50;1.00;;;;;;5031627;28;20884;-77
2021/10/29 06:12:12;;;;;;;46.92;38.38;;;5.50;1.00;;;;;;5039062;28;20237;-76
2021/10/29 06:14:39;;;;;;;47.83;37.55;;;5.50;1.00;;;;;;5036828;28;20241;-77
2021/10/29 06:17:09;;;;;;;52.25;37.60;;;5.50;1.00;;;;;;5026258;28;20234;-76
2021/10/29 06:19:36;;;;;;;45.10;37.25;;;5.50;1.00;;;;;;5020721;28;20352;-78
2021/10/29 06:22:07;;;;;;;46.38;40.00;;;5.50;1.00;;;;;;5033426;28;20312;-79
2021/10/29 06:24:35;;;;;;;52.53;40.63;;;5.50;1.00;;;;;;5040336;28;20229;-77
2021/10/29 06:27:09;;;;;;;47.42;38.67;;;5.50;1.00;;;;;;5053935;28;20221;-78
2021/10/29 06:29:35;;;;;;;52.15;39.65;;;5.50;1.00;;;;;;5042386;28;21360;-77
2021/10/29 06:32:06;;;;;;;50.08;39.60;;;5.50;1.00;;;;;;5030206;28;20231;-79
2021/10/29 06:34:35;;;;;;;46.17;38.45;;;5.60;1.00;;;;;;5029135;28;20391;-78
2021/10/29 06:37:02;;;;;;;55.67;39.13;;;5.60;1.00;;;;;;5034826;28;21352;-78
2021/10/29 06:39:29;;;;;;;47.95;39.80;;;5.50;1.00;;;;;;5038451;28;20226;-77
2021/10/29 06:41:57;;;;;;;47.63;38.25;;;5.60;1.00;;;;;;5032537;28;21007;-78
2021/10/29 06:44:32;;;;;;;50.35;38.28;;;5.60;1.00;;;;;;5037314;28;20236;-77
2021/10/29 06:47:34;;;;;;;50.33;38.42;;;5.60;1.00;;;;;;5033603;28;20301;-79
2021/10/29 07:01:02;;;;;;;49.50;38.25;;;5.70;1.00;;;;;;5035028;28;21554;-78
2021/10/29 07:12:18;;;;;;;52.03;40.95;;;5.80;1.00;;;;;;5031579;28;21867;-79
2021/10/29 07:42:11;;;;;;;43.05;35.30;;;6.70;1.00;;;;;;5030802;28;20281;-78
2021/10/29 07:44:39;;;;;;;44.10;36.17;;;6.80;1.00;;;;;;5019734;28;20233;-78
2021/10/29 07:47:06;;;;;;;41.55;34.30;;;6.90;1.00;;;;;;5017856;28;20303;-78
2021/10/29 07:49:34;;;;;;;40.65;35.22;;;7.00;1.00;;;;;;5023992;28;20322;-78
2021/10/29 07:52:00;;;;;;;41.45;34.47;;;7.10;1.00;;;;;;5027025;28;24687;-78
2021/10/29 07:54:28;;;;;;;41.30;32.55;;;7.30;1.00;;;;;;5026360;28;20228;-79
2021/10/29 07:56:55;;;;;;;41.80;33.92;;;7.40;1.00;;;;;;5029164;28;20225;-78
2021/10/29 07:59:22;;;;;;;39.60;32.30;;;7.50;1.00;;;;;;5028054;28;20239;-79
2021/10/29 08:01:50;;;;;;;39.00;32.08;;;7.60;1.00;;;;;;5029391;28;21253;-78
2021/10/29 08:04:18;;;;;;;44.75;29.98;;;7.70;1.00;;;;;;5027344;28;24083;-77
2021/10/29 08:06:47;;;;;;;39.47;31.17;;;7.80;1.00;;;;;;5033118;28;20296;-79
2021/10/29 08:09:14;;;;;;;34.15;30.42;;;7.80;1.00;;;;;;5027824;28;20246;-79
2021/10/29 08:11:41;;;;;;;33.95;30.13;;;7.90;1.00;;;;;;5034094;28;20824;-79
2021/10/29 08:14:07;;;;;;;37.53;30.48;;;8.00;1.00;;;;;;5031424;28;20974;-79
2021/10/29 08:16:34;;;;;;;36.70;29.90;;;8.50;1.00;;;;;;5029930;28;20223;-79
2021/10/29 08:19:02;;;;;;;33.67;28.88;;;8.90;1.00;;;;;;5029826;28;20314;-79
2021/10/29 08:21:29;;;;;;;36.17;28.75;;;9.00;1.00;;;;;;5027793;28;21097;-78
2021/10/29 08:23:57;;;;;;;34.78;29.33;;;9.00;1.00;;;;;;5039597;28;20218;-78
2021/10/29 08:26:24;;;;;;;31.88;28.25;;;8.90;1.00;;;;;;5070677;28;20231;-79
2021/10/29 08:28:50;;;;;;;37.17;28.65;;;8.90;1.00;;;;;;5041870;28;21245;-80
2021/10/29 08:31:17;;;;;;;34.10;27.80;;;9.00;1.00;;;;;;5034245;28;20228;-79
2021/10/29 08:33:44;;;;;;;31.27;27.98;;;9.00;1.00;;;;;;5039001;28;21027;-79
2021/10/29 08:36:12;;;;;;;33.65;29.15;;;9.00;1.00;;;;;;5038755;28;20231;-79
2021/10/29 08:38:40;;;;;;;32.83;28.83;;;9.00;1.00;;;;;;5030635;28;20238;-79
2021/10/29 08:41:08;;;;;;;32.85;27.48;;;9.10;1.00;;;;;;5030434;28;20238;-78
2021/10/29 08:43:35;;;;;;;33.25;27.58;;;9.10;1.00;;;;;;5031228;28;20221;-80
2021/10/29 08:46:02;;;;;;;32.00;27.60;;;9.20;1.00;;;;;;5032775;28;20296;-79
2021/10/29 08:48:31;;;;;;;31.83;27.20;;;9.30;1.00;;;;;;5034791;28;20254;-78
2021/10/29 08:50:58;;;;;;;30.57;26.67;;;9.40;1.00;;;;;;5035449;28;20230;-79
2021/10/29 08:53:24;;;;;;;33.55;29.35;;;9.50;1.00;;;;;;5032498;28;21245;-77
2021/10/29 08:55:51;;;;;;;31.83;26.85;;;9.60;1.00;;;;;;5041328;28;21140;-79
2021/10/29 08:58:21;;;;;;;31.15;26.55;;;9.70;1.00;;;;;;5032490;28;20350;-78
2021/10/29 09:00:48;;;;;;;31.53;28.23;;;9.80;1.00;;;;;;5031211;28;20234;-80
2021/10/29 09:03:25;;;;;;;28.70;25.55;;;9.90;1.00;;;;;;5033952;28;20457;-79
2021/10/29 09:06:03;;;;;;;34.43;26.17;;;10.00;1.00;;;;;;5034297;28;20265;-79
2021/10/29 09:08:52;;;;;;;31.10;27.23;;;10.10;1.00;;;;;;5038540;28;20474;-77
2021/10/29 09:17:11;;;;;;;27.23;24.13;;;12.10;1.00;;;;;;5038622;28;20459;-77
2021/10/29 09:31:28;;;;;;;29.93;26.73;;;11.40;1.00;;;;;;5040964;28;20467;-78
2021/10/29 09:33:57;;;;;;;31.43;27.70;;;11.20;1.00;;;;;;5036643;28;20454;-78
2021/10/29 09:36:32;;;;;;;27.97;25.03;;;11.20;1.00;;;;;;5032831;28;20437;-79
2021/10/29 09:39:06;;;;;;;32.33;25.43;;;11.30;1.00;;;;;;5030700;28;20449;-78
2021/10/29 09:41:34;;;;;;;30.10;24.50;;;11.30;1.00;;;;;;5032833;28;20536;-80
2021/10/29 09:44:04;;;;;;;29.40;24.70;;;11.30;1.00;;;;;;5043199;28;20427;-80
2021/10/29 09:46:45;;;;;;;29.40;26.30;;;11.40;1.00;;;;;;5036128;28;20438;-79
2021/10/29 09:49:21;;;;;;;30.30;24.67;;;11.40;1.00;;;;;;5033209;28;20903;-78
2021/10/29 09:52:09;;;;;;;28.27;24.47;;;11.60;1.00;;;;;;5051949;28;20439;-78
2021/10/29 09:54:49;;;;;;;28.87;23.60;;;11.70;1.00;;;;;;5035720;28;20531;-79
2021/10/29 09:57:17;;;;;;;26.40;23.70;;;11.80;1.00;;;;;;5033097;28;20467;-79
2021/10/29 09:59:44;;;;;;;25.90;23.30;;;11.90;1.00;;;;;;5030711;28;20980;-79
2021/10/29 10:02:19;;;;;;;25.50;22.80;;;12.00;1.00;;;;;;5031320;28;20453;-78
2021/10/29 10:04:47;;;;;;;25.37;22.67;;;12.10;1.00;;;;;;5029158;28;20464;-79
2021/10/29 10:07:15;;;;;;;26.77;23.70;;;12.30;1.00;;;;;;5040210;28;20457;-79
2021/10/29 10:09:43;;;;;;;28.93;24.93;;;12.60;1.00;;;;;;5024534;28;22435;-78
2021/10/29 10:12:11;;;;;;;27.63;24.63;;;12.90;1.00;;;;;;5026648;28;20547;-79
2021/10/29 10:14:38;;;;;;;25.80;23.20;;;13.00;1.00;;;;;;5036977;28;20477;-78
2021/10/29 10:17:05;;;;;;;26.03;23.43;;;13.00;1.00;;;;;;5035457;28;20453;-79
2021/10/29 10:19:34;;;;;;;27.50;23.80;;;13.10;1.00;;;;;;5035540;28;20512;-79
2021/10/29 10:22:02;;;;;;;27.87;24.23;;;13.00;1.00;;;;;;5031926;28;20449;-79
2021/10/29 10:24:32;;;;;;;27.13;24.23;;;13.00;1.00;;;;;;5036258;28;20464;-79
2021/10/29 10:30:22;;;;;;;25.20;22.50;;;13.00;1.00;;;;;;5009652;28;20513;-80
2021/10/29 10:46:57;;;;;;;25.80;23.10;;;13.80;1.00;;;;;;5095789;27;1215462;-78
2021/10/29 10:49:33;;;;;;;25.43;22.70;;;13.80;1.00;;;;;;5124271;27;20227;-79
2021/10/29 10:52:06;;;;;;;23.37;21.00;;;13.90;1.00;;;;;;5123136;27;20440;-78
2021/10/29 10:54:45;;;;;;;25.20;22.60;;;13.80;1.00;;;;;;5122688;27;20441;-78
2021/10/29 10:57:21;;;;;;;25.03;22.53;;;13.80;1.00;;;;;;5121176;27;20549;-77
2021/10/29 11:00:05;;;;;;;23.93;21.50;;;13.90;1.00;;;;;;5124153;27;20552;-78
2021/10/29 11:05:50;;;;;;;24.93;22.43;;;14.30;1.00;;;;;;5120095;27;20465;-78
2021/10/29 11:11:14;;;;;;;23.70;21.30;;;14.90;1.00;;;;;;5117860;27;20455;-78
2021/10/29 11:13:57;;;;;;;25.73;23.13;;;15.80;1.00;;;;;;5123519;27;20496;-77
2021/10/29 11:16:34;;;;;;;28.77;23.37;;;16.90;1.00;;;;;;5126490;27;20998;-78
2021/10/29 11:19:10;;;;;;;24.07;21.63;;;17.80;1.00;;;;;;5115701;27;20416;-78
2021/10/29 11:21:47;;;;;;;25.23;22.63;;;18.50;1.00;;;;;;5121703;27;20455;-78
2021/10/29 11:24:15;;;;;;;24.57;22.07;;;19.00;1.00;;;;;;5121253;27;20510;-79
2021/10/29 11:26:44;;;;;;;26.20;23.70;;;19.70;1.00;;;;;;5121138;27;20917;-78
2021/10/29 11:29:12;;;;;;;24.93;22.73;;;20.00;1.00;;;;;;5122870;27;20465;-78
2021/10/29 11:31:43;;;;;;;25.10;22.60;;;20.70;1.00;;;;;;5131371;27;20452;-77
2021/10/29 11:34:15;;;;;;;26.20;23.70;;;20.70;1.00;;;;;;5138440;27;20450;-77
2021/10/29 11:36:45;;;;;;;22.83;20.73;;;21.10;1.00;;;;;;5120201;27;20513;-77
2021/10/29 11:39:13;;;;;;;23.30;21.20;;;21.30;1.00;;;;;;5122195;27;20452;-78
2021/10/29 11:41:43;;;;;;;23.87;21.67;;;21.50;1.00;;;;;;5124183;27;20576;-78
2021/10/29 11:44:16;;;;;;;23.13;20.90;;;21.80;1.00;;;;;;5127084;27;20473;-78
2021/10/29 11:46:45;;;;;;;23.97;21.67;;;22.00;1.00;;;;;;5124531;27;20448;-79
2021/10/29 11:49:18;;;;;;;22.23;20.20;;;21.70;1.00;;;;;;5124231;27;20453;-80
2021/10/29 11:51:45;;;;;;;22.60;20.67;;;21.80;1.00;;;;;;5123791;27;20450;-79
2021/10/29 11:54:17;;;;;;;24.20;21.90;;;22.80;1.00;;;;;;5122479;27;20455;-78
2021/10/29 11:56:50;;;;;;;22.23;20.23;;;24.70;1.00;;;;;;5119536;27;20457;-79
2021/10/29 11:59:52;;;;;;;21.13;19.13;;;25.70;1.00;;;;;;5108394;27;20456;-79
2021/10/29 12:07:48;;;;;;;21.37;19.57;;;28.00;1.00;;;;;;5109160;27;21058;-78
2021/10/29 12:10:18;;;;;;;21.80;19.77;;;28.90;1.00;;;;;;5111411;27;20757;-80
2021/10/29 12:12:48;;;;;;;20.50;18.63;;;28.60;1.00;;;;;;5108972;27;20510;-79
2021/10/29 12:15:20;;;;;;;20.97;19.10;;;29.40;1.00;;;;;;5109018;27;20439;-79
2021/10/29 12:17:52;;;;;;;20.40;18.50;;;29.40;1.00;;;;;;5108428;27;20459;-78
2021/10/29 12:20:24;;;;;;;21.40;19.57;;;29.50;1.00;;;;;;5111430;27;20452;-78
2021/10/29 12:22:55;;;;;;;22.40;20.40;;;29.40;1.00;;;;;;5111355;27;20490;-78
2021/10/29 12:25:28;;;;;;;21.50;19.60;;;27.20;1.00;;;;;;5109728;27;20505;-78
2021/10/29 12:28:00;;;;;;;22.40;20.50;;;26.40;1.00;;;;;;5105724;27;20461;-78
2021/10/29 12:30:32;;;;;;;21.80;19.90;;;26.30;1.00;;;;;;5110330;27;20432;-78
2021/10/29 12:33:23;;;;;;;23.67;21.37;;;26.10;1.00;;;;;;5112923;27;20421;-79
2021/10/29 12:39:13;;;;;;;22.53;20.53;;;26.40;1.00;;;;;;5104912;27;20459;-78
2021/10/29 13:01:36;;;;;;;22.07;19.87;;;20.80;1.00;;;;;;5117808;27;20437;-78
2021/10/29 13:04:06;;;;;;;21.37;19.37;;;21.20;1.00;;;;;;5112372;27;20453;-77
2021/10/29 13:06:35;;;;;;;20.33;18.53;;;22.50;1.00;;;;;;5106785;27;20452;-77
2021/10/29 13:09:14;;;;;;;21.10;19.00;;;23.30;1.00;;;;;;5102781;27;20467;-80
2021/10/29 13:11:50;;;;;;;20.07;18.10;;;23.10;1.00;;;;;;5101929;27;20459;-78
2021/10/29 13:14:24;;;;;;;20.90;18.93;;;22.40;1.00;;;;;;5113840;27;21291;-79
2021/10/29 13:16:51;;;;;;;20.53;18.80;;;21.30;1.00;;;;;;5110710;27;20505;-78
2021/10/29 13:19:45;;;;;;;21.40;19.40;;;20.20;1.00;;;;;;5113952;27;20465;-78
2021/10/29 13:25:17;;;;;;;18.90;17.10;;;19.20;1.00;;;;;;5114863;27;20453;-79
2021/10/29 13:28:00;;;;;;;18.30;16.60;;;18.40;1.00;;;;;;5107880;27;20493;-79
2021/10/29 13:36:12;;;;;;;20.43;18.40;;;17.10;1.00;;;;;;5108389;27;21456;-79
2021/10/29 13:52:32;;;;;;;20.00;17.83;;;15.90;1.00;;;;;;5114366;27;21786;-81
2021/10/29 13:58:04;;;;;;;20.00;18.10;;;15.40;1.00;;;;;;5094052;27;21126;-79
2021/10/29 14:00:49;;;;;;;20.77;18.60;;;15.30;1.00;;;;;;5113059;27;20455;-78
2021/10/29 14:28:16;;;;;;;22.10;20.10;;;14.70;1.00;;;;;;5126644;27;20604;-80
2021/10/29 14:30:51;;;;;;;21.50;19.60;;;14.70;1.00;;;;;;5112793;27;20455;-79
2021/10/29 14:33:20;;;;;;;22.00;19.77;;;14.70;1.00;;;;;;5107293;27;20450;-79
2021/10/29 14:35:51;;;;;;;21.87;19.87;;;14.80;1.00;;;;;;5105529;27;20552;-80
2021/10/29 14:38:22;;;;;;;21.93;19.73;;;14.80;1.00;;;;;;5105442;27;20894;-77
2021/10/29 14:40:52;;;;;;;20.27;18.37;;;14.80;1.00;;;;;;5097859;27;20465;-81
2021/10/29 14:43:22;;;;;;;35.87;32.70;;;14.80;1.00;;;;;;5106041;27;20456;-79
2021/10/29 14:45:59;;;;;;;22.13;20.03;;;14.80;1.00;;;;;;5100768;27;21699;-79
2021/10/29 14:48:37;;;;;;;23.27;21.03;;;14.70;1.00;;;;;;5105459;27;20509;-78
2021/10/29 14:51:32;;;;;;;22.20;20.10;;;14.70;1.00;;;;;;5105655;27;20507;-81
2021/10/29 15:05:27;;;;;;;22.27;20.17;;;14.30;1.00;;;;;;5062009;28;20435;-77
2021/10/29 15:27:15;;;;;;;22.87;20.47;;;13.80;1.00;;;;;;5110722;27;20453;-78
2021/10/29 15:32:44;;;;;;;23.43;21.17;;;13.60;1.00;;;;;;5116269;27;20465;-77
2021/10/29 15:43:50;;;;;;;26.93;23.70;;;13.30;1.00;;;;;;5120411;27;20851;-78
2021/10/29 15:46:20;;;;;;;25.10;22.70;;;13.20;1.00;;;;;;5119971;27;20473;-76
2021/10/29 15:48:51;;;;;;;24.77;22.20;;;13.00;1.00;;;;;;5125566;27;20441;-77
2021/10/29 15:51:20;;;;;;;22.80;20.70;;;12.90;1.00;;;;;;5118513;27;20552;-76
2021/10/29 15:53:47;;;;;;;25.77;23.07;;;12.90;1.00;;;;;;5116110;27;21137;-77
2021/10/29 15:56:24;;;;;;;26.43;23.63;;;12.80;1.00;;;;;;5110643;27;20482;-78
2021/10/29 15:58:57;;;;;;;29.97;25.17;;;12.70;1.00;;;;;;5116247;27;20441;-77
2021/10/29 16:01:31;;;;;;;25.77;23.10;;;12.70;1.00;;;;;;5110613;27;20452;-77
2021/10/29 16:16:58;;;;;;;27.77;24.47;;;12.60;1.00;;;;;;5119022;27;20465;-78
2021/10/29 16:17:50;;;;;;;24.80;22.20;;;12.30;1.00;;;;;;5112258;27;20432;-77
2021/10/29 16:20:17;;;;;;;29.67;26.67;;;12.20;1.00;;;;;;5110070;27;21201;-77
2021/10/29 16:22:45;;;;;;;25.23;22.83;;;12.20;1.00;;;;;;5106361;27;20458;-76
2021/10/29 16:25:15;;;;;;;27.80;25.17;;;12.10;1.00;;;;;;5109055;27;20445;-77
2021/10/29 16:27:49;;;;;;;25.10;22.80;;;12.10;1.00;;;;;;5112581;27;20466;-76
2021/10/29 16:30:16;;;;;;;26.93;24.07;;;12.10;1.00;;;;;;5125155;27;20476;-76
2021/10/29 16:33:03;;;;;;;29.30;26.20;;;12.10;1.00;;;;;;5108883;27;20528;-76
2021/10/29 16:35:32;;;;;;;23.60;21.40;;;12.00;1.00;;;;;;5102538;27;20458;-76
2021/10/29 16:38:00;;;;;;;27.67;24.77;;;12.00;1.00;;;;;;5103070;27;20451;-77